KDMN/DMN METAR and TAF weather

Enter ICAO airport designator
Station Type Date Time Source
KDMN METAR 2021/09/25 11:53 UTC NOAA

KDMN 251153Z AUTO 00000KT 10SM FEW120 17/10 A3015 RMK AO2 SLP144 T01670100 10200 20167 53004


Station Type Date Time Source
KDMN Decoded METAR 2021/09/25 11:53 UTC NOAA

DEMING MUNICIPAL AIRPORT, NM, United States (KDMN) 32-16N 107-43W 1311M
Sep 25, 2021 - 07:53 AM EDT / 2021.09.25 1153 UTC
Wind: Calm:0
Visibility: 10 mile(s):0
Sky conditions: mostly clear
Temperature: 62.1 F (16.7 C)
Dew Point: 50.0 F (10.0 C)
Relative Humidity: 64%
Pressure (altimeter): 30.15 in. Hg (1020 hPa)
Pressure tendency: 0.01 inches (0.4 hPa) higher than three hours ago
ob: KDMN 251153Z AUTO 00000KT 10SM FEW120 17/10 A3015 RMK AO2 SLP144 T01670100 10200 20167 53004
cycle: 12

Station Type Date Time Source
KDMN TAF 2021/09/25 12:36 UTC NOAA

TAF KDMN 251135Z 2512/2612 28003KT P6SM SKC
FM251800 06011KT P6SM VCTS OVC080CB
FM260300 05006KT P6SM OVC100

Example: see airport list